• Join FlightAware (Why Join?)
  • Login
  • US Flag 
10:27AM EDT


 

Airport Tracker/Info


-or-


 

Live Flight TrackerFlight Track Log ✈ UAL4533 ✈ 23-Sep-2013 ✈ KEWR - KBUF

Flight Track Log - Related Links

Times and Time Zones

All times are in EDT time to prevent confusion due to time zone crossing. See the UAL4533 flight status page for this flight to view local times or setup timezone preferences in your user account.

Time Position Orientation Groundspeed Altitude Reporting Facility
EDT Latitude Longitude Course Direction KTS MPH feet Rate Location/Type
06:22AM 40.7333 -74.1167 315° West 196 226 2,900  Level New York TRACON
06:23AM 40.7667 -74.0833 37° Northeast 237 273 3,800 1,800 Climbing New York TRACON
06:23AM 40.7833 -74.1500 288° West 252 290 6,200 2,700 Climbing New York TRACON
06:24AM 40.9037 -74.5694 309° West  Level Estimated
06:25AM 40.9563 -74.6699 323° Northwest  Level Estimated
06:25AM 40.8167 -74.2500 294° West 235 270 9,200  Level New York TRACON
06:25AM 40.8500 -74.3167 303° West 271 312 10,100 420 Climbing New York TRACON
06:26AM 41.0088 -74.7707 312° West  Level Estimated
06:26AM 40.9333 -74.3833 329° Northwest 341 392 10,100  Level New York TRACON
06:27AM 41.0612 -74.8716 315° West  Level Estimated
06:28AM 41.0417 -74.4519 334° Northwest 342 394 10,800  Level New York Center
06:29AM 41.1172 -74.5028 333° Northwest 342 394 12,100 1,440 Climbing New York Center
06:30AM 41.2089 -74.5686 332° Northwest 342 394 13,700 1,440 Climbing New York Center
06:31AM 41.2686 -74.6492 315° West 342 394 15,000 1,380 Climbing New York Center
06:32AM 41.3358 -74.7581 309° West 344 396 16,500 1,380 Climbing New York Center
06:33AM 41.3911 -74.8472 310° West 349 402 17,800 1,380 Climbing New York Center
06:34AM 41.4581 -74.9564 309° West 354 407 19,300 1,500 Climbing New York Center
06:35AM 41.5169 -75.0569 308° West 354 407 20,800 1,320 Climbing New York Center
06:36AM 41.5758 -75.1606 307° West 359 413 22,000 600 Climbing New York Center
06:37AM 41.6144 -75.2936 291° West 365 420 22,000  Level New York Center
06:38AM 41.6550 -75.4294 292° West 382 440 22,000  Level New York Center
06:39AM 41.6953 -75.5711 291° West 401 461 22,000  Level New York Center
06:40AM 41.7375 -75.7078 293° West 401 461 22,000  Level New York Center
06:41AM 41.7817 -75.8444 293° West 396 456 22,000  Level New York Center
06:42AM 41.8217 -75.9783 292° West 396 456 22,000  Level New York Center
06:43AM 41.8636 -76.1125 293° West 396 456 22,000  Level New York Center
06:44AM 41.9050 -76.2525 292° West 396 456 22,000  Level New York Center
06:45AM 41.9469 -76.3842 293° West 396 456 22,000  Level New York Center
06:46AM 41.9881 -76.5217 292° West 396 456 22,000  Level New York Center
06:47AM 42.0239 -76.6447 291° West 396 456 22,000  Level New York Center
06:48AM 42.0706 -76.7914 293° West 396 456 22,000  Level New York Center
06:49AM 42.1200 -76.9586 292° West 397 457 22,000  Level Cleveland Center
06:50AM 42.1619 -77.0964 292° West 399 459 22,000  Level Cleveland Center
06:51AM 42.2025 -77.2347 292° West 396 456 22,000  Level Cleveland Center
06:52AM 42.2425 -77.3731 291° West 395 455 22,000  Level Cleveland Center
06:53AM 42.2825 -77.5125 291° West 397 457 22,000  Level Cleveland Center
06:54AM 42.3236 -77.6531 292° West 399 459 22,000 -900 Level Cleveland Center
06:55AM 42.3714 -77.8194 291° West 394 453 20,200 -2,280 Descending Cleveland Center
06:56AM 42.4081 -77.9481 291° West 368 423 17,400 -2,880 Descending Cleveland Center
06:57AM 42.4439 -78.0697 292° West 351 404 14,400 -2,880 Descending Cleveland Center
06:58AM 42.4767 -78.1903 290° West 341 392 11,500 -2,100 Descending Cleveland Center
06:59AM 42.5122 -78.2997 294° West 319 367 10,100 -720 Descending Cleveland Center
07:00AM 42.5436 -78.4097 291° West 313 360 10,100 -180 Level Cleveland Center
07:01AM 42.5933 -78.5044 306° West 303 349 9,800 -1,320 Descending Cleveland Center
07:02AM 42.6406 -78.5931 306° West 270 311 7,400 -2,280 Descending Cleveland Center
07:03AM 42.6850 -78.6644 310° West 240 276 5,200 -1,620 Descending Cleveland Center
07:04AM 42.7247 -78.7297 310° West 216 249 4,100 -600 Descending Cleveland Center
07:05AM 42.7628 -78.7864 312° West 211 243 4,000 -540 Descending Cleveland Center
07:06AM 42.8214 -78.8117 342° North 211 243 3,100 -840 Descending Cleveland Center
07:07AM 42.8739 -78.8058 North 185 213 2,300 -840 Descending Cleveland Center
07:08AM 42.9000 -78.7833 32° Northeast 130 150 1,600 -840 Descending Buffalo TRACON